sensor_id;sensor_type;location;lat;lon;timestamp;temperature;humidity
1534;DHT22;760;48.822;9.304;2023-06-14T04:05:51;12.50;99.70
1534;DHT22;760;48.822;9.304;2023-06-14T04:08:17;12.50;99.90
1534;DHT22;760;48.822;9.304;2023-06-14T04:10:44;12.60;99.90
1534;DHT22;760;48.822;9.304;2023-06-14T04:13:10;12.70;99.90
1534;DHT22;760;48.822;9.304;2023-06-14T04:15:38;12.80;99.90
1534;DHT22;760;48.822;9.304;2023-06-14T04:18:08;12.90;99.40
1534;DHT22;760;48.822;9.304;2023-06-14T04:20:33;13.10;99.00
1534;DHT22;760;48.822;9.304;2023-06-14T04:23:11;13.30;98.40
1534;DHT22;760;48.822;9.304;2023-06-14T04:25:38;13.50;97.90
1534;DHT22;760;48.822;9.304;2023-06-14T04:28:04;13.90;97.70
1534;DHT22;760;48.822;9.304;2023-06-14T04:30:29;14.10;97.30
1534;DHT22;760;48.822;9.304;2023-06-14T04:32:57;14.40;96.80
1534;DHT22;760;48.822;9.304;2023-06-14T04:35:22;14.50;95.30
1534;DHT22;760;48.822;9.304;2023-06-14T04:37:50;14.60;94.50
1534;DHT22;760;48.822;9.304;2023-06-14T04:40:17;14.70;93.80
1534;DHT22;760;48.822;9.304;2023-06-14T04:42:42;14.90;94.00
1534;DHT22;760;48.822;9.304;2023-06-14T04:45:11;15.00;94.20
1534;DHT22;760;48.822;9.304;2023-06-14T04:47:38;15.20;93.60
1534;DHT22;760;48.822;9.304;2023-06-14T04:50:04;15.20;93.10
1534;DHT22;760;48.822;9.304;2023-06-14T04:52:29;15.20;92.60
1534;DHT22;760;48.822;9.304;2023-06-14T04:54:55;15.20;92.30
1534;DHT22;760;48.822;9.304;2023-06-14T04:57:21;15.20;92.10
1534;DHT22;760;48.822;9.304;2023-06-14T04:59:48;15.30;92.20
1534;DHT22;760;48.822;9.304;2023-06-14T05:02:14;15.40;92.00
1534;DHT22;760;48.822;9.304;2023-06-14T05:04:39;15.40;92.00
1534;DHT22;760;48.822;9.304;2023-06-14T05:07:08;15.40;91.80
1534;DHT22;760;48.822;9.304;2023-06-14T05:09:35;15.50;91.70
1534;DHT22;760;48.822;9.304;2023-06-14T05:12:01;15.60;92.10
1534;DHT22;760;48.822;9.304;2023-06-14T05:14:26;15.70;92.20
1534;DHT22;760;48.822;9.304;2023-06-14T05:16:52;15.80;92.30
1534;DHT22;760;48.822;9.304;2023-06-14T05:19:19;15.80;92.20
1534;DHT22;760;48.822;9.304;2023-06-14T05:21:46;15.90;91.80
1534;DHT22;760;48.822;9.304;2023-06-14T05:24:13;16.00;91.20
1534;DHT22;760;48.822;9.304;2023-06-14T05:26:38;16.10;90.80
1534;DHT22;760;48.822;9.304;2023-06-14T05:29:04;16.20;90.90
1534;DHT22;760;48.822;9.304;2023-06-14T05:31:30;16.30;90.90
1534;DHT22;760;48.822;9.304;2023-06-14T05:33:56;16.40;90.70
1534;DHT22;760;48.822;9.304;2023-06-14T05:36:21;16.70;91.00
1534;DHT22;760;48.822;9.304;2023-06-14T05:38:47;17.10;90.40
1534;DHT22;760;48.822;9.304;2023-06-14T05:41:13;17.60;88.80
1534;DHT22;760;48.822;9.304;2023-06-14T05:43:39;18.10;87.60
1534;DHT22;760;48.822;9.304;2023-06-14T05:46:04;18.40;85.60
1534;DHT22;760;48.822;9.304;2023-06-14T05:48:30;18.60;84.60
1534;DHT22;760;48.822;9.304;2023-06-14T05:50:56;18.60;84.00
1534;DHT22;760;48.822;9.304;2023-06-14T05:53:22;18.40;82.50
1534;DHT22;760;48.822;9.304;2023-06-14T05:55:47;18.30;83.00
1534;DHT22;760;48.822;9.304;2023-06-14T05:58:13;18.20;82.10
1534;DHT22;760;48.822;9.304;2023-06-14T06:00:39;18.10;83.40
1534;DHT22;760;48.822;9.304;2023-06-14T06:03:05;18.00;84.50
1534;DHT22;760;48.822;9.304;2023-06-14T06:05:33;18.10;84.80
1534;DHT22;760;48.822;9.304;2023-06-14T06:07:59;18.10;83.70
1534;DHT22;760;48.822;9.304;2023-06-14T06:10:25;18.20;84.00
1534;DHT22;760;48.822;9.304;2023-06-14T06:12:51;18.30;84.10
1534;DHT22;760;48.822;9.304;2023-06-14T06:15:17;18.40;84.60
1534;DHT22;760;48.822;9.304;2023-06-14T06:17:44;18.60;85.00
1534;DHT22;760;48.822;9.304;2023-06-14T06:20:10;18.60;83.00
1534;DHT22;760;48.822;9.304;2023-06-14T06:22:37;18.70;81.60
1534;DHT22;760;48.822;9.304;2023-06-14T06:25:02;18.60;82.50
1534;DHT22;760;48.822;9.304;2023-06-14T06:27:28;18.70;83.40
1534;DHT22;760;48.822;9.304;2023-06-14T06:29:54;19.00;80.70
1534;DHT22;760;48.822;9.304;2023-06-14T06:32:19;19.20;80.30
1534;DHT22;760;48.822;9.304;2023-06-14T06:34:46;19.40;81.20
1534;DHT22;760;48.822;9.304;2023-06-14T06:37:12;19.60;81.20
1534;DHT22;760;48.822;9.304;2023-06-14T06:39:38;19.80;80.40
1534;DHT22;760;48.822;9.304;2023-06-14T06:42:04;19.80;79.20
1534;DHT22;760;48.822;9.304;2023-06-14T06:44:30;19.80;78.30
1534;DHT22;760;48.822;9.304;2023-06-14T06:46:57;19.80;79.30
1534;DHT22;760;48.822;9.304;2023-06-14T06:49:23;19.80;74.20
1534;DHT22;760;48.822;9.304;2023-06-14T06:52:02;19.80;73.70
1534;DHT22;760;48.822;9.304;2023-06-14T06:54:28;19.70;74.60
1534;DHT22;760;48.822;9.304;2023-06-14T06:56:54;19.70;76.60
1534;DHT22;760;48.822;9.304;2023-06-14T06:59:19;19.80;77.30
1534;DHT22;760;48.822;9.304;2023-06-14T07:01:45;20.00;77.50
1534;DHT22;760;48.822;9.304;2023-06-14T07:04:10;20.10;77.80
1534;DHT22;760;48.822;9.304;2023-06-14T07:06:36;20.20;76.60
1534;DHT22;760;48.822;9.304;2023-06-14T07:09:04;20.40;74.10
1534;DHT22;760;48.822;9.304;2023-06-14T07:11:33;20.40;72.70
1534;DHT22;760;48.822;9.304;2023-06-14T07:13:59;20.40;74.10
1534;DHT22;760;48.822;9.304;2023-06-14T07:16:24;20.40;73.90
1534;DHT22;760;48.822;9.304;2023-06-14T07:18:51;20.50;76.30
1534;DHT22;760;48.822;9.304;2023-06-14T07:21:16;20.50;74.50
1534;DHT22;760;48.822;9.304;2023-06-14T07:23:42;20.50;75.70
1534;DHT22;760;48.822;9.304;2023-06-14T07:26:08;20.80;75.50
1534;DHT22;760;48.822;9.304;2023-06-14T07:28:33;21.30;74.00
1534;DHT22;760;48.822;9.304;2023-06-14T07:30:59;21.70;73.30
1534;DHT22;760;48.822;9.304;2023-06-14T07:33:24;22.40;72.50
1534;DHT22;760;48.822;9.304;2023-06-14T07:35:50;23.10;70.50
1534;DHT22;760;48.822;9.304;2023-06-14T07:38:17;23.80;69.50
1534;DHT22;760;48.822;9.304;2023-06-14T07:40:43;24.90;67.80
1534;DHT22;760;48.822;9.304;2023-06-14T07:43:08;25.70;63.90
1534;DHT22;760;48.822;9.304;2023-06-14T07:45:34;26.80;63.30
1534;DHT22;760;48.822;9.304;2023-06-14T07:48:00;27.90;61.30
1534;DHT22;760;48.822;9.304;2023-06-14T07:50:25;28.70;58.50
1534;DHT22;760;48.822;9.304;2023-06-14T07:52:51;29.70;57.40
1534;DHT22;760;48.822;9.304;2023-06-14T07:55:16;30.40;55.70
1534;DHT22;760;48.822;9.304;2023-06-14T07:57:42;31.00;53.90
1534;DHT22;760;48.822;9.304;2023-06-14T08:00:09;31.40;52.90
1534;DHT22;760;48.822;9.304;2023-06-14T08:02:43;31.80;52.90
1534;DHT22;760;48.822;9.304;2023-06-14T08:05:10;32.10;51.50
1534;DHT22;760;48.822;9.304;2023-06-14T08:07:39;32.00;51.30
1534;DHT22;760;48.822;9.304;2023-06-14T08:10:06;32.70;50.80
1534;DHT22;760;48.822;9.304;2023-06-14T08:12:33;33.10;49.60
1534;DHT22;760;48.822;9.304;2023-06-14T08:14:59;32.90;48.50
1534;DHT22;760;48.822;9.304;2023-06-14T08:17:25;32.70;48.50
1534;DHT22;760;48.822;9.304;2023-06-14T08:19:50;32.60;48.70
1534;DHT22;760;48.822;9.304;2023-06-14T08:22:16;32.90;48.60
1534;DHT22;760;48.822;9.304;2023-06-14T08:24:43;33.00;47.90
1534;DHT22;760;48.822;9.304;2023-06-14T08:27:10;32.80;48.70
1534;DHT22;760;48.822;9.304;2023-06-14T08:29:36;32.60;48.10
1534;DHT22;760;48.822;9.304;2023-06-14T08:32:04;32.70;48.40
1534;DHT22;760;48.822;9.304;2023-06-14T08:34:29;32.90;48.30
1534;DHT22;760;48.822;9.304;2023-06-14T08:36:55;33.10;47.90
1534;DHT22;760;48.822;9.304;2023-06-14T08:39:20;33.30;47.40
1534;DHT22;760;48.822;9.304;2023-06-14T08:41:47;33.80;47.20
1534;DHT22;760;48.822;9.304;2023-06-14T08:44:16;33.50;47.50
1534;DHT22;760;48.822;9.304;2023-06-14T08:46:42;33.60;46.90
1534;DHT22;760;48.822;9.304;2023-06-14T08:49:11;33.40;47.00
1534;DHT22;760;48.822;9.304;2023-06-14T08:51:37;33.00;47.10
1534;DHT22;760;48.822;9.304;2023-06-14T08:54:03;33.10;47.10
1534;DHT22;760;48.822;9.304;2023-06-14T08:56:30;32.90;46.50
1534;DHT22;760;48.822;9.304;2023-06-14T08:58:57;33.10;47.80
1534;DHT22;760;48.822;9.304;2023-06-14T09:01:26;33.10;47.50
1534;DHT22;760;48.822;9.304;2023-06-14T09:03:52;33.60;47.10
1534;DHT22;760;48.822;9.304;2023-06-14T09:06:21;34.00;46.40
1534;DHT22;760;48.822;9.304;2023-06-14T09:08:49;34.10;46.10
1534;DHT22;760;48.822;9.304;2023-06-14T09:11:17;34.40;45.70
1534;DHT22;760;48.822;9.304;2023-06-14T09:13:45;34.40;44.80
1534;DHT22;760;48.822;9.304;2023-06-14T09:16:11;33.90;45.10
1534;DHT22;760;48.822;9.304;2023-06-14T09:18:38;33.60;46.10
1534;DHT22;760;48.822;9.304;2023-06-14T09:21:07;33.60;45.50
1534;DHT22;760;48.822;9.304;2023-06-14T09:23:40;33.40;45.50
1534;DHT22;760;48.822;9.304;2023-06-14T09:26:10;33.20;45.30
1534;DHT22;760;48.822;9.304;2023-06-14T09:28:58;33.10;45.20
1534;DHT22;760;48.822;9.304;2023-06-14T09:31:22;33.30;45.10
1534;DHT22;760;48.822;9.304;2023-06-14T09:33:49;33.70;45.30
1534;DHT22;760;48.822;9.304;2023-06-14T09:36:16;33.90;44.10
1534;DHT22;760;48.822;9.304;2023-06-14T09:41:39;33.90;44.90
1534;DHT22;760;48.822;9.304;2023-06-14T09:44:07;33.70;44.20
1534;DHT22;760;48.822;9.304;2023-06-14T09:46:34;34.00;44.90
1534;DHT22;760;48.822;9.304;2023-06-14T09:49:01;34.40;43.50
1534;DHT22;760;48.822;9.304;2023-06-14T09:51:28;34.70;43.40
1534;DHT22;760;48.822;9.304;2023-06-14T09:54:00;34.50;42.80
1534;DHT22;760;48.822;9.304;2023-06-14T09:56:37;35.10;43.20
1534;DHT22;760;48.822;9.304;2023-06-14T09:59:05;35.30;41.90
1534;DHT22;760;48.822;9.304;2023-06-14T10:01:34;35.00;41.60
1534;DHT22;760;48.822;9.304;2023-06-14T10:04:05;34.40;42.10
1534;DHT22;760;48.822;9.304;2023-06-14T10:06:31;34.10;42.30
1534;DHT22;760;48.822;9.304;2023-06-14T10:08:58;34.20;42.40
1534;DHT22;760;48.822;9.304;2023-06-14T10:11:27;34.30;42.10
1534;DHT22;760;48.822;9.304;2023-06-14T10:13:57;34.60;42.00
1534;DHT22;760;48.822;9.304;2023-06-14T10:16:31;34.90;42.30
1534;DHT22;760;48.822;9.304;2023-06-14T10:19:11;34.60;41.80
1534;DHT22;760;48.822;9.304;2023-06-14T10:24:33;34.50;40.30
1534;DHT22;760;48.822;9.304;2023-06-14T10:27:01;34.30;40.40
1534;DHT22;760;48.822;9.304;2023-06-14T10:29:30;34.30;42.20
1534;DHT22;760;48.822;9.304;2023-06-14T10:31:58;33.90;40.90
1534;DHT22;760;48.822;9.304;2023-06-14T10:34:26;33.00;41.70
1534;DHT22;760;48.822;9.304;2023-06-14T10:39:28;31.70;42.50
1534;DHT22;760;48.822;9.304;2023-06-14T10:41:55;31.50;42.60
1534;DHT22;760;48.822;9.304;2023-06-14T10:46:53;31.50;43.90
1534;DHT22;760;48.822;9.304;2023-06-14T10:49:20;31.80;44.40
1534;DHT22;760;48.822;9.304;2023-06-14T10:51:50;31.90;43.90
1534;DHT22;760;48.822;9.304;2023-06-14T10:54:16;32.10;43.80
1534;DHT22;760;48.822;9.304;2023-06-14T10:56:49;32.30;43.60
1534;DHT22;760;48.822;9.304;2023-06-14T10:59:16;32.20;43.60
1534;DHT22;760;48.822;9.304;2023-06-14T11:04:51;32.20;43.90
1534;DHT22;760;48.822;9.304;2023-06-14T11:07:41;31.50;44.90
1534;DHT22;760;48.822;9.304;2023-06-14T11:10:22;30.80;44.90
1534;DHT22;760;48.822;9.304;2023-06-14T11:12:54;30.60;45.40
1534;DHT22;760;48.822;9.304;2023-06-14T11:15:20;30.20;46.00
1534;DHT22;760;48.822;9.304;2023-06-14T11:17:52;29.60;47.10
1534;DHT22;760;48.822;9.304;2023-06-14T11:20:19;29.10;48.50
1534;DHT22;760;48.822;9.304;2023-06-14T11:22:45;28.60;47.30
1534;DHT22;760;48.822;9.304;2023-06-14T11:25:14;28.40;46.10
1534;DHT22;760;48.822;9.304;2023-06-14T11:27:42;27.80;48.80
1534;DHT22;760;48.822;9.304;2023-06-14T11:30:08;27.70;49.70
1534;DHT22;760;48.822;9.304;2023-06-14T11:32:35;27.80;49.60
1534;DHT22;760;48.822;9.304;2023-06-14T11:35:02;27.70;49.00
1534;DHT22;760;48.822;9.304;2023-06-14T11:37:28;27.60;50.10
1534;DHT22;760;48.822;9.304;2023-06-14T11:40:01;27.80;50.30
1534;DHT22;760;48.822;9.304;2023-06-14T11:42:29;27.90;50.40
1534;DHT22;760;48.822;9.304;2023-06-14T11:44:55;28.10;48.70
1534;DHT22;760;48.822;9.304;2023-06-14T11:47:22;27.90;47.90
1534;DHT22;760;48.822;9.304;2023-06-14T11:49:48;27.60;47.70
1534;DHT22;760;48.822;9.304;2023-06-14T11:52:14;27.10;47.70
1534;DHT22;760;48.822;9.304;2023-06-14T11:54:40;26.50;48.60
1534;DHT22;760;48.822;9.304;2023-06-14T11:57:09;26.20;49.80
1534;DHT22;760;48.822;9.304;2023-06-14T11:59:40;26.00;50.20
1534;DHT22;760;48.822;9.304;2023-06-14T12:02:06;25.80;51.30
1534;DHT22;760;48.822;9.304;2023-06-14T12:04:32;25.60;50.90
1534;DHT22;760;48.822;9.304;2023-06-14T12:07:11;25.30;51.20
1534;DHT22;760;48.822;9.304;2023-06-14T12:09:40;25.10;53.00
1534;DHT22;760;48.822;9.304;2023-06-14T12:12:09;25.00;51.50
1534;DHT22;760;48.822;9.304;2023-06-14T12:14:36;24.80;51.60
1534;DHT22;760;48.822;9.304;2023-06-14T12:17:05;24.70;52.30
1534;DHT22;760;48.822;9.304;2023-06-14T12:19:42;24.90;52.90
1534;DHT22;760;48.822;9.304;2023-06-14T12:22:13;25.20;52.10
1534;DHT22;760;48.822;9.304;2023-06-14T12:24:39;25.30;50.40
1534;DHT22;760;48.822;9.304;2023-06-14T12:27:05;25.60;51.70
1534;DHT22;760;48.822;9.304;2023-06-14T12:29:31;25.70;50.50
1534;DHT22;760;48.822;9.304;2023-06-14T12:31:57;25.90;51.70
1534;DHT22;760;48.822;9.304;2023-06-14T12:34:23;26.00;50.10
1534;DHT22;760;48.822;9.304;2023-06-14T12:36:56;26.20;49.80
1534;DHT22;760;48.822;9.304;2023-06-14T12:39:22;26.30;49.40
1534;DHT22;760;48.822;9.304;2023-06-14T12:41:48;26.40;49.50
1534;DHT22;760;48.822;9.304;2023-06-14T12:44:14;26.40;49.20
1534;DHT22;760;48.822;9.304;2023-06-14T12:46:41;26.50;49.60
1534;DHT22;760;48.822;9.304;2023-06-14T12:49:09;26.50;49.90
1534;DHT22;760;48.822;9.304;2023-06-14T12:51:35;26.50;50.00
1534;DHT22;760;48.822;9.304;2023-06-14T12:54:00;26.50;49.60
1534;DHT22;760;48.822;9.304;2023-06-14T12:56:26;26.50;49.40
1534;DHT22;760;48.822;9.304;2023-06-14T12:58:52;26.50;49.90
1534;DHT22;760;48.822;9.304;2023-06-14T13:01:18;26.60;51.20
1534;DHT22;760;48.822;9.304;2023-06-14T13:03:45;26.80;51.90
1534;DHT22;760;48.822;9.304;2023-06-14T13:06:10;27.00;50.50
1534;DHT22;760;48.822;9.304;2023-06-14T13:08:36;27.10;49.90
1534;DHT22;760;48.822;9.304;2023-06-14T13:11:02;26.90;49.60
1534;DHT22;760;48.822;9.304;2023-06-14T13:13:27;26.70;49.70
1534;DHT22;760;48.822;9.304;2023-06-14T13:15:53;26.60;50.20
1534;DHT22;760;48.822;9.304;2023-06-14T13:18:18;26.60;50.10
1534;DHT22;760;48.822;9.304;2023-06-14T13:20:45;26.60;52.20
1534;DHT22;760;48.822;9.304;2023-06-14T13:23:11;26.60;51.10
1534;DHT22;760;48.822;9.304;2023-06-14T13:25:38;26.40;50.30
1534;DHT22;760;48.822;9.304;2023-06-14T13:28:04;26.40;52.30
1534;DHT22;760;48.822;9.304;2023-06-14T13:30:31;26.40;51.60
1534;DHT22;760;48.822;9.304;2023-06-14T13:32:57;26.20;51.40
1534;DHT22;760;48.822;9.304;2023-06-14T13:35:23;26.00;51.90
1534;DHT22;760;48.822;9.304;2023-06-14T13:37:49;25.80;52.20
1534;DHT22;760;48.822;9.304;2023-06-14T13:40:15;25.70;51.70
1534;DHT22;760;48.822;9.304;2023-06-14T13:42:41;25.50;52.10
1534;DHT22;760;48.822;9.304;2023-06-14T13:45:07;25.10;52.40
1534;DHT22;760;48.822;9.304;2023-06-14T13:47:33;24.90;53.80
1534;DHT22;760;48.822;9.304;2023-06-14T13:49:58;24.80;53.80
1534;DHT22;760;48.822;9.304;2023-06-14T13:52:25;24.60;54.90
1534;DHT22;760;48.822;9.304;2023-06-14T13:54:50;24.60;53.90
1534;DHT22;760;48.822;9.304;2023-06-14T13:57:17;24.60;53.80
1534;DHT22;760;48.822;9.304;2023-06-14T13:59:43;24.60;54.10
1534;DHT22;760;48.822;9.304;2023-06-14T14:02:12;24.60;54.00
1534;DHT22;760;48.822;9.304;2023-06-14T14:04:38;24.70;54.60
1534;DHT22;760;48.822;9.304;2023-06-14T14:07:05;24.70;54.30
1534;DHT22;760;48.822;9.304;2023-06-14T14:09:32;24.80;53.00
1534;DHT22;760;48.822;9.304;2023-06-14T14:12:01;24.80;53.30
1534;DHT22;760;48.822;9.304;2023-06-14T14:14:31;25.00;53.40
1534;DHT22;760;48.822;9.304;2023-06-14T14:16:57;25.00;55.30
1534;DHT22;760;48.822;9.304;2023-06-14T14:19:23;25.10;53.30
1534;DHT22;760;48.822;9.304;2023-06-14T14:21:49;25.20;52.70
1534;DHT22;760;48.822;9.304;2023-06-14T14:24:15;25.30;52.50
1534;DHT22;760;48.822;9.304;2023-06-14T14:26:41;25.30;52.70
1534;DHT22;760;48.822;9.304;2023-06-14T14:29:07;25.40;52.80
1534;DHT22;760;48.822;9.304;2023-06-14T14:31:33;25.60;52.50
1534;DHT22;760;48.822;9.304;2023-06-14T14:33:59;25.60;53.50
1534;DHT22;760;48.822;9.304;2023-06-14T14:36:25;25.80;52.40
1534;DHT22;760;48.822;9.304;2023-06-14T14:38:50;25.90;51.70
1534;DHT22;760;48.822;9.304;2023-06-14T14:41:17;25.80;51.30
1534;DHT22;760;48.822;9.304;2023-06-14T14:43:42;25.60;51.80
1534;DHT22;760;48.822;9.304;2023-06-14T14:46:08;25.40;52.30
1534;DHT22;760;48.822;9.304;2023-06-14T14:48:34;25.30;52.90
1534;DHT22;760;48.822;9.304;2023-06-14T14:50:59;25.10;52.80
1534;DHT22;760;48.822;9.304;2023-06-14T14:53:25;24.90;53.00
1534;DHT22;760;48.822;9.304;2023-06-14T14:55:51;24.80;53.10
1534;DHT22;760;48.822;9.304;2023-06-14T14:58:16;24.60;53.20
1534;DHT22;760;48.822;9.304;2023-06-14T15:00:45;24.40;53.40
1534;DHT22;760;48.822;9.304;2023-06-14T15:03:11;24.40;53.90
1534;DHT22;760;48.822;9.304;2023-06-14T15:05:37;24.50;54.00
1534;DHT22;760;48.822;9.304;2023-06-14T15:08:03;24.50;53.70
1534;DHT22;760;48.822;9.304;2023-06-14T15:10:29;24.60;54.60
1534;DHT22;760;48.822;9.304;2023-06-14T15:12:55;24.60;53.70
1534;DHT22;760;48.822;9.304;2023-06-14T15:15:22;24.70;53.70
1534;DHT22;760;48.822;9.304;2023-06-14T15:17:47;24.70;53.40
1534;DHT22;760;48.822;9.304;2023-06-14T15:20:13;24.70;53.20
1534;DHT22;760;48.822;9.304;2023-06-14T15:22:40;24.70;53.20
1534;DHT22;760;48.822;9.304;2023-06-14T15:25:06;24.70;53.50
1534;DHT22;760;48.822;9.304;2023-06-14T15:27:32;24.60;53.50
1534;DHT22;760;48.822;9.304;2023-06-14T15:29:57;24.60;53.00
1534;DHT22;760;48.822;9.304;2023-06-14T15:32:23;24.60;53.40
1534;DHT22;760;48.822;9.304;2023-06-14T15:34:49;24.70;53.30
1534;DHT22;760;48.822;9.304;2023-06-14T15:37:14;24.70;53.40
1534;DHT22;760;48.822;9.304;2023-06-14T15:39:40;24.70;53.50
1534;DHT22;760;48.822;9.304;2023-06-14T15:42:06;24.70;53.50
1534;DHT22;760;48.822;9.304;2023-06-14T15:44:33;24.70;53.30
1534;DHT22;760;48.822;9.304;2023-06-14T15:46:59;24.80;53.20
1534;DHT22;760;48.822;9.304;2023-06-14T15:49:24;24.80;54.10
1534;DHT22;760;48.822;9.304;2023-06-14T15:51:51;24.80;53.00
1534;DHT22;760;48.822;9.304;2023-06-14T15:54:16;24.80;52.90
1534;DHT22;760;48.822;9.304;2023-06-14T15:56:42;24.80;52.50
1534;DHT22;760;48.822;9.304;2023-06-14T15:59:07;24.80;52.60
1534;DHT22;760;48.822;9.304;2023-06-14T16:01:33;24.80;52.30
1534;DHT22;760;48.822;9.304;2023-06-14T16:03:58;24.70;52.70
1534;DHT22;760;48.822;9.304;2023-06-14T16:06:24;24.70;52.70
1534;DHT22;760;48.822;9.304;2023-06-14T16:08:50;24.60;53.00
1534;DHT22;760;48.822;9.304;2023-06-14T16:11:18;24.60;52.60
1534;DHT22;760;48.822;9.304;2023-06-14T16:13:45;24.60;52.60
1534;DHT22;760;48.822;9.304;2023-06-14T16:16:10;24.50;53.50
1534;DHT22;760;48.822;9.304;2023-06-14T16:18:36;24.50;52.80
1534;DHT22;760;48.822;9.304;2023-06-14T16:21:02;24.40;53.20
1534;DHT22;760;48.822;9.304;2023-06-14T16:23:31;24.40;53.00
1534;DHT22;760;48.822;9.304;2023-06-14T16:25:57;24.40;53.40
1534;DHT22;760;48.822;9.304;2023-06-14T16:28:22;24.40;52.90
1534;DHT22;760;48.822;9.304;2023-06-14T16:30:48;24.30;52.80
1534;DHT22;760;48.822;9.304;2023-06-14T16:33:13;24.30;53.80
1534;DHT22;760;48.822;9.304;2023-06-14T16:35:39;24.20;53.80
1534;DHT22;760;48.822;9.304;2023-06-14T16:38:06;24.20;54.00
1534;DHT22;760;48.822;9.304;2023-06-14T16:40:32;24.20;54.70
1534;DHT22;760;48.822;9.304;2023-06-14T16:42:58;24.10;54.10
1534;DHT22;760;48.822;9.304;2023-06-14T16:45:24;24.10;54.40
1534;DHT22;760;48.822;9.304;2023-06-14T16:47:49;24.10;54.40
1534;DHT22;760;48.822;9.304;2023-06-14T16:50:15;24.20;53.90
1534;DHT22;760;48.822;9.304;2023-06-14T16:52:40;24.20;54.10
1534;DHT22;760;48.822;9.304;2023-06-14T16:55:06;24.10;54.40
1534;DHT22;760;48.822;9.304;2023-06-14T16:57:32;24.10;54.50
1534;DHT22;760;48.822;9.304;2023-06-14T16:59:58;24.10;54.70
1534;DHT22;760;48.822;9.304;2023-06-14T17:02:23;24.00;54.80
1534;DHT22;760;48.822;9.304;2023-06-14T17:04:49;24.10;55.10
1534;DHT22;760;48.822;9.304;2023-06-14T17:07:14;24.10;54.90
1534;DHT22;760;48.822;9.304;2023-06-14T17:09:40;24.10;54.70
1534;DHT22;760;48.822;9.304;2023-06-14T17:12:06;24.10;54.80
1534;DHT22;760;48.822;9.304;2023-06-14T17:14:32;24.10;54.70
1534;DHT22;760;48.822;9.304;2023-06-14T17:16:58;24.00;54.70
1534;DHT22;760;48.822;9.304;2023-06-14T17:19:23;24.10;54.70
1534;DHT22;760;48.822;9.304;2023-06-14T17:21:49;24.10;54.70
1534;DHT22;760;48.822;9.304;2023-06-14T17:24:18;24.00;54.70
1534;DHT22;760;48.822;9.304;2023-06-14T17:26:43;24.00;54.80
1534;DHT22;760;48.822;9.304;2023-06-14T17:29:09;24.00;55.00
1534;DHT22;760;48.822;9.304;2023-06-14T17:31:34;24.00;55.10
1534;DHT22;760;48.822;9.304;2023-06-14T17:34:00;24.00;55.40
1534;DHT22;760;48.822;9.304;2023-06-14T17:36:26;24.00;54.90
1534;DHT22;760;48.822;9.304;2023-06-14T17:38:51;24.00;55.40
1534;DHT22;760;48.822;9.304;2023-06-14T17:41:17;23.90;55.70
1534;DHT22;760;48.822;9.304;2023-06-14T17:43:43;23.90;55.50
1534;DHT22;760;48.822;9.304;2023-06-14T17:46:09;23.80;56.00
1534;DHT22;760;48.822;9.304;2023-06-14T17:48:35;23.80;56.70
1534;DHT22;760;48.822;9.304;2023-06-14T17:53:26;23.70;57.00
1534;DHT22;760;48.822;9.304;2023-06-14T17:55:52;23.60;57.40
1534;DHT22;760;48.822;9.304;2023-06-14T17:58:18;23.60;57.60
1534;DHT22;760;48.822;9.304;2023-06-14T18:00:45;23.60;57.90
1534;DHT22;760;48.822;9.304;2023-06-14T18:03:11;23.50;58.10
1534;DHT22;760;48.822;9.304;2023-06-14T18:05:37;23.40;58.30
1534;DHT22;760;48.822;9.304;2023-06-14T18:08:04;23.30;58.30
1534;DHT22;760;48.822;9.304;2023-06-14T18:10:31;23.20;58.80
1534;DHT22;760;48.822;9.304;2023-06-14T18:12:57;23.20;58.90
1534;DHT22;760;48.822;9.304;2023-06-14T18:15:23;23.10;59.10
1534;DHT22;760;48.822;9.304;2023-06-14T18:17:49;23.10;59.50
1534;DHT22;760;48.822;9.304;2023-06-14T18:20:16;23.00;58.80
1534;DHT22;760;48.822;9.304;2023-06-14T18:22:42;23.00;59.10
1534;DHT22;760;48.822;9.304;2023-06-14T18:25:07;22.90;59.40
1534;DHT22;760;48.822;9.304;2023-06-14T18:27:33;22.90;58.90
1534;DHT22;760;48.822;9.304;2023-06-14T18:29:59;22.90;58.60
1534;DHT22;760;48.822;9.304;2023-06-14T18:32:27;22.90;58.30
1534;DHT22;760;48.822;9.304;2023-06-14T18:34:55;22.80;58.20
1534;DHT22;760;48.822;9.304;2023-06-14T18:37:21;22.80;58.30
1534;DHT22;760;48.822;9.304;2023-06-14T18:39:46;22.70;58.20
1534;DHT22;760;48.822;9.304;2023-06-14T18:42:12;22.70;58.30
1534;DHT22;760;48.822;9.304;2023-06-14T18:44:38;22.70;58.50
1534;DHT22;760;48.822;9.304;2023-06-14T18:47:04;22.60;58.50
1534;DHT22;760;48.822;9.304;2023-06-14T18:49:29;22.60;58.50
1534;DHT22;760;48.822;9.304;2023-06-14T18:51:55;22.50;58.50
1534;DHT22;760;48.822;9.304;2023-06-14T18:54:20;22.50;58.50
1534;DHT22;760;48.822;9.304;2023-06-14T18:56:46;22.50;58.80
1534;DHT22;760;48.822;9.304;2023-06-14T18:59:12;22.40;58.80
1534;DHT22;760;48.822;9.304;2023-06-14T19:01:38;22.40;59.10
1534;DHT22;760;48.822;9.304;2023-06-14T19:04:03;22.40;59.30
1534;DHT22;760;48.822;9.304;2023-06-14T19:06:29;22.30;59.20
1534;DHT22;760;48.822;9.304;2023-06-14T19:08:55;22.20;59.00
1534;DHT22;760;48.822;9.304;2023-06-14T19:11:20;22.20;59.30
1534;DHT22;760;48.822;9.304;2023-06-14T19:13:46;22.10;59.50
1534;DHT22;760;48.822;9.304;2023-06-14T19:16:13;22.00;59.50
1534;DHT22;760;48.822;9.304;2023-06-14T19:18:38;22.00;59.60
1534;DHT22;760;48.822;9.304;2023-06-14T19:21:04;21.90;59.50
1534;DHT22;760;48.822;9.304;2023-06-14T19:23:29;21.90;59.50
1534;DHT22;760;48.822;9.304;2023-06-14T19:25:55;21.90;59.60
1534;DHT22;760;48.822;9.304;2023-06-14T19:28:21;21.80;59.60
1534;DHT22;760;48.822;9.304;2023-06-14T19:30:47;21.80;59.60
1534;DHT22;760;48.822;9.304;2023-06-14T19:33:13;21.70;59.90
1534;DHT22;760;48.822;9.304;2023-06-14T19:35:39;21.70;60.10
1534;DHT22;760;48.822;9.304;2023-06-14T19:38:04;21.60;60.40
1534;DHT22;760;48.822;9.304;2023-06-14T19:40:30;21.50;60.60
1534;DHT22;760;48.822;9.304;2023-06-14T19:42:55;21.50;60.90
1534;DHT22;760;48.822;9.304;2023-06-14T19:45:21;21.40;61.20
1534;DHT22;760;48.822;9.304;2023-06-14T19:47:46;21.30;61.20
1534;DHT22;760;48.822;9.304;2023-06-14T19:50:12;21.20;61.20
1534;DHT22;760;48.822;9.304;2023-06-14T19:52:38;21.20;61.20
1534;DHT22;760;48.822;9.304;2023-06-14T19:55:04;21.20;62.30
1534;DHT22;760;48.822;9.304;2023-06-14T19:57:30;21.10;61.50
1534;DHT22;760;48.822;9.304;2023-06-14T19:59:55;21.10;61.50
1534;DHT22;760;48.822;9.304;2023-06-14T20:02:21;21.00;61.50
1534;DHT22;760;48.822;9.304;2023-06-14T20:04:47;20.90;61.60
1534;DHT22;760;48.822;9.304;2023-06-14T20:07:13;20.90;61.80
1534;DHT22;760;48.822;9.304;2023-06-14T20:09:39;20.80;62.10
1534;DHT22;760;48.822;9.304;2023-06-14T20:12:04;20.70;62.40
1534;DHT22;760;48.822;9.304;2023-06-14T20:14:31;20.60;62.80
1534;DHT22;760;48.822;9.304;2023-06-14T20:16:57;20.50;63.60
1534;DHT22;760;48.822;9.304;2023-06-14T20:19:23;20.40;64.10
1534;DHT22;760;48.822;9.304;2023-06-14T20:21:48;20.40;64.50
1534;DHT22;760;48.822;9.304;2023-06-14T20:24:14;20.30;64.60
1534;DHT22;760;48.822;9.304;2023-06-14T20:26:39;20.20;64.40
1534;DHT22;760;48.822;9.304;2023-06-14T20:29:05;20.10;64.50
1534;DHT22;760;48.822;9.304;2023-06-14T20:31:31;20.10;64.50
1534;DHT22;760;48.822;9.304;2023-06-14T20:33:59;20.00;64.50